Neuhausen ob Eck Airport EDSN

Flugplatz Daten

Name: Neuhausen ob Eck Airport

Ident: EDSN

Lat: 47,9766655

Long: 8,903888702

Platzhöhe: 2638 ft

IataCode:

City: Neuhausen ob Eck

Metar

2020/06/01 07:56
KOVL 010756Z AUTO 17019G23KT 10SM VCTS OVC080 20/11 A2996 RMK AO2 LTG DSNT SEDSNT SE

Taf

Gewünschte Webcam nicht vorhanden? Dann fügen Sie eine hinzu. Sie wird dann so schnell wie möglich freigeschaltet
Url: Title: